sensor_id;sensor_type;location;lat;lon;timestamp;pressure;altitude;pressure_sealevel;temperature;humidity
12146;BME280;6136;47.032;15.398;2022-07-30T00:00:17;97303.16;;;19.04;nan
12146;BME280;6136;47.032;15.398;2022-07-30T00:02:52;97301.13;;;19.06;nan
12146;BME280;6136;47.032;15.398;2022-07-30T00:05:21;97294.41;;;19.02;nan
12146;BME280;6136;47.032;15.398;2022-07-30T00:07:49;97301.47;;;19.03;nan
12146;BME280;6136;47.032;15.398;2022-07-30T00:10:18;97296.63;;;19.06;nan
12146;BME280;6136;47.032;15.398;2022-07-30T00:12:49;97296.84;;;19.13;nan
12146;BME280;6136;47.032;15.398;2022-07-30T00:15:17;97295.00;;;19.13;nan
12146;BME280;6136;47.032;15.398;2022-07-30T00:17:45;97295.19;;;19.12;nan
12146;BME280;6136;47.032;15.398;2022-07-30T00:20:15;97295.19;;;19.12;nan
12146;BME280;6136;47.032;15.398;2022-07-30T00:22:45;97297.47;;;19.07;nan
12146;BME280;6136;47.032;15.398;2022-07-30T00:25:14;97282.75;;;19.11;nan
12146;BME280;6136;47.032;15.398;2022-07-30T00:27:46;97282.41;;;19.14;nan
12146;BME280;6136;47.032;15.398;2022-07-30T00:30:15;97281.25;;;19.16;nan
12146;BME280;6136;47.032;15.398;2022-07-30T00:32:43;97286.16;;;19.21;nan
12146;BME280;6136;47.032;15.398;2022-07-30T00:35:12;97288.53;;;19.24;nan
12146;BME280;6136;47.032;15.398;2022-07-30T00:37:40;97292.22;;;19.23;nan
12146;BME280;6136;47.032;15.398;2022-07-30T00:40:10;97289.41;;;19.24;nan
12146;BME280;6136;47.032;15.398;2022-07-30T00:42:40;97291.94;;;19.26;nan
12146;BME280;6136;47.032;15.398;2022-07-30T00:45:09;97297.66;;;19.31;nan
12146;BME280;6136;47.032;15.398;2022-07-30T00:47:38;97291.31;;;19.32;nan
12146;BME280;6136;47.032;15.398;2022-07-30T00:50:09;97286.44;;;19.35;nan
12146;BME280;6136;47.032;15.398;2022-07-30T00:52:38;97285.59;;;19.35;nan
12146;BME280;6136;47.032;15.398;2022-07-30T00:55:10;97293.88;;;19.42;nan
12146;BME280;6136;47.032;15.398;2022-07-30T00:57:39;97293.41;;;19.46;nan
12146;BME280;6136;47.032;15.398;2022-07-30T01:00:09;97285.75;;;19.51;nan
12146;BME280;6136;47.032;15.398;2022-07-30T01:02:38;97300.25;;;19.58;nan
12146;BME280;6136;47.032;15.398;2022-07-30T01:05:07;97298.81;;;19.72;nan
12146;BME280;6136;47.032;15.398;2022-07-30T01:07:36;97296.31;;;19.78;nan
12146;BME280;6136;47.032;15.398;2022-07-30T01:10:05;97285.63;;;19.87;nan
12146;BME280;6136;47.032;15.398;2022-07-30T01:12:36;97284.28;;;19.83;nan
12146;BME280;6136;47.032;15.398;2022-07-30T01:15:06;97283.28;;;19.84;nan
12146;BME280;6136;47.032;15.398;2022-07-30T01:17:35;97270.88;;;19.91;nan
12146;BME280;6136;47.032;15.398;2022-07-30T01:20:06;97270.53;;;19.94;nan
12146;BME280;6136;47.032;15.398;2022-07-30T01:22:51;97267.03;;;20.01;nan
12146;BME280;6136;47.032;15.398;2022-07-30T01:25:37;97260.81;;;20.01;nan
12146;BME280;6136;47.032;15.398;2022-07-30T01:28:09;97263.19;;;20.04;nan
12146;BME280;6136;47.032;15.398;2022-07-30T01:30:41;97263.34;;;20.02;nan
12146;BME280;6136;47.032;15.398;2022-07-30T01:33:13;97263.88;;;20.06;nan
12146;BME280;6136;47.032;15.398;2022-07-30T01:35:44;97268.28;;;20.15;nan
12146;BME280;6136;47.032;15.398;2022-07-30T01:38:13;97270.59;;;20.10;nan
12146;BME280;6136;47.032;15.398;2022-07-30T01:40:47;97262.53;;;20.10;nan
12146;BME280;6136;47.032;15.398;2022-07-30T01:43:18;97269.59;;;20.11;nan
12146;BME280;6136;47.032;15.398;2022-07-30T01:45:48;97268.28;;;20.15;nan
12146;BME280;6136;47.032;15.398;2022-07-30T01:48:19;97271.84;;;20.24;nan
12146;BME280;6136;47.032;15.398;2022-07-30T01:50:51;97266.44;;;20.24;nan
12146;BME280;6136;47.032;15.398;2022-07-30T01:53:23;97259.91;;;20.26;nan
12146;BME280;6136;47.032;15.398;2022-07-30T01:55:55;97251.06;;;20.34;nan
12146;BME280;6136;47.032;15.398;2022-07-30T01:58:26;97270.75;;;20.34;nan
12146;BME280;6136;47.032;15.398;2022-07-30T02:01:02;97258.63;;;20.38;nan
12146;BME280;6136;47.032;15.398;2022-07-30T02:03:31;97261.53;;;20.45;nan
12146;BME280;6136;47.032;15.398;2022-07-30T02:06:03;97263.00;;;20.39;nan
12146;BME280;6136;47.032;15.398;2022-07-30T02:08:37;97255.28;;;20.36;nan
12146;BME280;6136;47.032;15.398;2022-07-30T02:11:09;97259.47;;;20.39;nan
12146;BME280;6136;47.032;15.398;2022-07-30T02:13:44;97254.44;;;20.36;nan
12146;BME280;6136;47.032;15.398;2022-07-30T02:16:19;97249.53;;;20.39;nan
12146;BME280;6136;47.032;15.398;2022-07-30T02:18:51;97245.16;;;20.38;nan
12146;BME280;6136;47.032;15.398;2022-07-30T02:21:25;97246.19;;;20.37;nan
12146;BME280;6136;47.032;15.398;2022-07-30T02:24:04;97253.59;;;20.35;nan
12146;BME280;6136;47.032;15.398;2022-07-30T02:26:37;97259.16;;;20.42;nan
12146;BME280;6136;47.032;15.398;2022-07-30T02:29:06;97272.47;;;20.43;nan
12146;BME280;6136;47.032;15.398;2022-07-30T02:31:38;97272.78;;;20.40;nan
12146;BME280;6136;47.032;15.398;2022-07-30T02:34:08;97286.78;;;20.52;nan
12146;BME280;6136;47.032;15.398;2022-07-30T02:36:40;97301.09;;;20.52;nan
12146;BME280;6136;47.032;15.398;2022-07-30T02:39:11;97307.09;;;20.46;nan
12146;BME280;6136;47.032;15.398;2022-07-30T02:41:42;97304.75;;;20.43;nan
12146;BME280;6136;47.032;15.398;2022-07-30T02:44:17;97297.91;;;20.23;nan
12146;BME280;6136;47.032;15.398;2022-07-30T02:46:48;97302.97;;;20.26;nan
12146;BME280;6136;47.032;15.398;2022-07-30T02:49:18;97304.28;;;20.14;nan
12146;BME280;6136;47.032;15.398;2022-07-30T02:51:48;97311.66;;;20.12;nan
12146;BME280;6136;47.032;15.398;2022-07-30T02:54:19;97326.75;;;20.05;nan
12146;BME280;6136;47.032;15.398;2022-07-30T02:56:50;97327.25;;;20.08;nan
12146;BME280;6136;47.032;15.398;2022-07-30T02:59:19;97334.03;;;20.12;nan
12146;BME280;6136;47.032;15.398;2022-07-30T03:01:49;97339.34;;;20.04;nan
12146;BME280;6136;47.032;15.398;2022-07-30T03:04:19;97329.09;;;20.00;nan
12146;BME280;6136;47.032;15.398;2022-07-30T03:06:48;97332.03;;;19.89;nan
12146;BME280;6136;47.032;15.398;2022-07-30T03:09:17;97334.81;;;19.79;nan
12146;BME280;6136;47.032;15.398;2022-07-30T03:11:50;97330.28;;;19.80;nan
12146;BME280;6136;47.032;15.398;2022-07-30T03:14:19;97325.59;;;19.82;nan
12146;BME280;6136;47.032;15.398;2022-07-30T03:16:58;97324.84;;;19.71;nan
12146;BME280;6136;47.032;15.398;2022-07-30T03:19:31;97322.34;;;19.70;nan
12146;BME280;6136;47.032;15.398;2022-07-30T03:22:06;97330.94;;;19.73;nan
12146;BME280;6136;47.032;15.398;2022-07-30T03:24:37;97330.22;;;19.71;nan
12146;BME280;6136;47.032;15.398;2022-07-30T03:27:08;97322.81;;;19.65;nan
12146;BME280;6136;47.032;15.398;2022-07-30T03:29:38;97324.13;;;19.61;nan
12146;BME280;6136;47.032;15.398;2022-07-30T03:32:07;97313.63;;;19.50;nan
12146;BME280;6136;47.032;15.398;2022-07-30T03:34:40;97324.91;;;19.54;nan
12146;BME280;6136;47.032;15.398;2022-07-30T03:37:10;97326.41;;;19.48;nan
12146;BME280;6136;47.032;15.398;2022-07-30T03:39:39;97324.69;;;19.47;nan
12146;BME280;6136;47.032;15.398;2022-07-30T03:42:10;97331.34;;;19.43;nan
12146;BME280;6136;47.032;15.398;2022-07-30T03:44:39;97331.34;;;19.43;nan
12146;BME280;6136;47.032;15.398;2022-07-30T03:47:08;97333.03;;;19.44;nan
12146;BME280;6136;47.032;15.398;2022-07-30T03:49:42;97339.88;;;19.38;nan
12146;BME280;6136;47.032;15.398;2022-07-30T03:52:11;97346.19;;;19.29;nan
12146;BME280;6136;47.032;15.398;2022-07-30T03:54:40;97336.56;;;19.27;nan
12146;BME280;6136;47.032;15.398;2022-07-30T03:57:32;97341.13;;;19.26;nan
12146;BME280;6136;47.032;15.398;2022-07-30T04:00:01;97339.38;;;19.17;nan
12146;BME280;6136;47.032;15.398;2022-07-30T04:02:42;97352.56;;;19.11;nan
12146;BME280;6136;47.032;15.398;2022-07-30T04:05:32;97348.91;;;19.12;nan
12146;BME280;6136;47.032;15.398;2022-07-30T04:08:06;97348.72;;;19.13;nan
12146;BME280;6136;47.032;15.398;2022-07-30T04:10:34;97344.53;;;19.11;nan
12146;BME280;6136;47.032;15.398;2022-07-30T04:13:27;97348.72;;;19.13;nan
12146;BME280;6136;47.032;15.398;2022-07-30T04:16:00;97348.72;;;19.13;nan
12146;BME280;6136;47.032;15.398;2022-07-30T04:18:36;97364.41;;;19.18;nan
12146;BME280;6136;47.032;15.398;2022-07-30T04:21:08;97369.34;;;19.13;nan
12146;BME280;6136;47.032;15.398;2022-07-30T04:23:43;97370.22;;;19.13;nan
12146;BME280;6136;47.032;15.398;2022-07-30T04:26:28;97369.53;;;19.11;nan
12146;BME280;6136;47.032;15.398;2022-07-30T04:29:00;97377.41;;;19.13;nan
12146;BME280;6136;47.032;15.398;2022-07-30T04:31:30;97382.78;;;19.13;nan
12146;BME280;6136;47.032;15.398;2022-07-30T04:34:17;97378.25;;;19.13;nan
12146;BME280;6136;47.032;15.398;2022-07-30T04:36:45;97382.13;;;19.11;nan
12146;BME280;6136;47.032;15.398;2022-07-30T04:39:14;97375.81;;;19.02;nan
12146;BME280;6136;47.032;15.398;2022-07-30T04:41:42;97375.19;;;19.08;nan
12146;BME280;6136;47.032;15.398;2022-07-30T04:44:31;97378.88;;;19.07;nan
12146;BME280;6136;47.032;15.398;2022-07-30T04:47:23;97388.16;;;19.13;nan
12146;BME280;6136;47.032;15.398;2022-07-30T04:50:11;97393.53;;;19.13;nan
12146;BME280;6136;47.032;15.398;2022-07-30T04:52:42;97386.56;;;19.20;nan
12146;BME280;6136;47.032;15.398;2022-07-30T04:55:14;97386.31;;;19.13;nan
12146;BME280;6136;47.032;15.398;2022-07-30T04:57:47;97394.09;;;19.16;nan
12146;BME280;6136;47.032;15.398;2022-07-30T05:00:17;97407.06;;;19.21;nan
12146;BME280;6136;47.032;15.398;2022-07-30T05:02:46;97399.97;;;19.20;nan
12146;BME280;6136;47.032;15.398;2022-07-30T05:05:17;97392.34;;;19.25;nan
12146;BME280;6136;47.032;15.398;2022-07-30T05:07:46;97393.84;;;19.27;nan
12146;BME280;6136;47.032;15.398;2022-07-30T05:10:16;97404.38;;;19.38;nan
12146;BME280;6136;47.032;15.398;2022-07-30T05:12:46;97405.22;;;19.39;nan
12146;BME280;6136;47.032;15.398;2022-07-30T05:15:17;97410.03;;;19.35;nan
12146;BME280;6136;47.032;15.398;2022-07-30T05:17:46;97407.84;;;19.31;nan
12146;BME280;6136;47.032;15.398;2022-07-30T05:20:14;97407.53;;;19.34;nan
12146;BME280;6136;47.032;15.398;2022-07-30T05:22:58;97402.47;;;19.31;nan
12146;BME280;6136;47.032;15.398;2022-07-30T05:25:27;97404.16;;;19.32;nan
12146;BME280;6136;47.032;15.398;2022-07-30T05:28:05;97402.16;;;19.34;nan
12146;BME280;6136;47.032;15.398;2022-07-30T05:30:37;97405.16;;;19.31;nan
12146;BME280;6136;47.032;15.398;2022-07-30T05:33:10;97404.84;;;19.34;nan
12146;BME280;6136;47.032;15.398;2022-07-30T05:35:41;97404.16;;;19.32;nan
12146;BME280;6136;47.032;15.398;2022-07-30T05:38:09;97405.66;;;19.34;nan
12146;BME280;6136;47.032;15.398;2022-07-30T05:40:50;97404.00;;;19.33;nan
12146;BME280;6136;47.032;15.398;2022-07-30T05:43:56;97411.50;;;19.30;nan
12146;BME280;6136;47.032;15.398;2022-07-30T05:46:25;97405.84;;;19.33;nan
12146;BME280;6136;47.032;15.398;2022-07-30T05:48:54;97409.75;;;19.38;nan
12146;BME280;6136;47.032;15.398;2022-07-30T05:51:23;97407.53;;;19.34;nan
12146;BME280;6136;47.032;15.398;2022-07-30T05:53:51;97416.59;;;19.33;nan
12146;BME280;6136;47.032;15.398;2022-07-30T05:56:37;97424.63;;;19.15;nan
12146;BME280;6136;47.032;15.398;2022-07-30T05:59:16;97419.63;;;19.20;nan
12146;BME280;6136;47.032;15.398;2022-07-30T06:02:12;97422.88;;;19.24;nan
12146;BME280;6136;47.032;15.398;2022-07-30T06:05:18;97429.38;;;19.21;nan
12146;BME280;6136;47.032;15.398;2022-07-30T06:07:47;97438.44;;;19.20;nan
12146;BME280;6136;47.032;15.398;2022-07-30T06:10:18;97431.84;;;19.15;nan
12146;BME280;6136;47.032;15.398;2022-07-30T06:12:46;97437.59;;;19.20;nan
12146;BME280;6136;47.032;15.398;2022-07-30T06:15:17;97434.47;;;19.24;nan
12146;BME280;6136;47.032;15.398;2022-07-30T06:17:53;97436.47;;;19.22;nan
12146;BME280;6136;47.032;15.398;2022-07-30T06:20:33;97437.69;;;19.28;nan
12146;BME280;6136;47.032;15.398;2022-07-30T06:23:11;97441.38;;;19.27;nan
12146;BME280;6136;47.032;15.398;2022-07-30T06:26:12;97447.53;;;19.37;nan
12146;BME280;6136;47.032;15.398;2022-07-30T06:28:40;97449.13;;;19.30;nan
12146;BME280;6136;47.032;15.398;2022-07-30T06:31:21;97453.28;;;19.24;nan
12146;BME280;6136;47.032;15.398;2022-07-30T06:33:50;97444.53;;;19.22;nan
12146;BME280;6136;47.032;15.398;2022-07-30T06:36:18;97457.09;;;19.22;nan
12146;BME280;6136;47.032;15.398;2022-07-30T06:38:57;97450.03;;;19.21;nan
12146;BME280;6136;47.032;15.398;2022-07-30T06:41:48;97453.03;;;19.18;nan
12146;BME280;6136;47.032;15.398;2022-07-30T06:44:16;97457.44;;;19.19;nan
12146;BME280;6136;47.032;15.398;2022-07-30T06:46:47;97456.72;;;19.17;nan
12146;BME280;6136;47.032;15.398;2022-07-30T06:49:19;97460.41;;;19.16;nan
12146;BME280;6136;47.032;15.398;2022-07-30T06:51:48;97458.72;;;19.15;nan
12146;BME280;6136;47.032;15.398;2022-07-30T06:54:19;97456.72;;;19.17;nan
12146;BME280;6136;47.032;15.398;2022-07-30T06:57:04;97457.09;;;19.22;nan
12146;BME280;6136;47.032;15.398;2022-07-30T06:59:32;97459.66;;;19.23;nan
12146;BME280;6136;47.032;15.398;2022-07-30T07:02:28;97458.78;;;19.23;nan
12146;BME280;6136;47.032;15.398;2022-07-30T07:05:08;97448.06;;;19.23;nan
12146;BME280;6136;47.032;15.398;2022-07-30T07:07:39;97456.50;;;19.28;nan
12146;BME280;6136;47.032;15.398;2022-07-30T07:10:15;97456.81;;;19.25;nan
12146;BME280;6136;47.032;15.398;2022-07-30T07:13:09;97454.22;;;19.33;nan
12146;BME280;6136;47.032;15.398;2022-07-30T07:15:38;97458.59;;;19.34;nan
12146;BME280;6136;47.032;15.398;2022-07-30T07:18:11;97456.19;;;19.31;nan
12146;BME280;6136;47.032;15.398;2022-07-30T07:20:49;97460.81;;;19.38;nan
12146;BME280;6136;47.032;15.398;2022-07-30T07:23:17;97460.66;;;19.40;nan
12146;BME280;6136;47.032;15.398;2022-07-30T07:25:48;97463.16;;;19.42;nan
12146;BME280;6136;47.032;15.398;2022-07-30T07:28:16;97454.38;;;19.49;nan
12146;BME280;6136;47.032;15.398;2022-07-30T07:30:44;97463.16;;;19.51;nan
12146;BME280;6136;47.032;15.398;2022-07-30T07:33:13;97462.53;;;19.57;nan
12146;BME280;6136;47.032;15.398;2022-07-30T07:35:43;97458.84;;;19.58;nan
12146;BME280;6136;47.032;15.398;2022-07-30T07:38:22;97463.53;;;19.74;nan
12146;BME280;6136;47.032;15.398;2022-07-30T07:40:53;97460.91;;;19.82;nan
12146;BME280;6136;47.032;15.398;2022-07-30T07:43:21;97457.50;;;19.80;nan
12146;BME280;6136;47.032;15.398;2022-07-30T07:45:53;97454.97;;;19.78;nan
12146;BME280;6136;47.032;15.398;2022-07-30T07:48:23;97454.75;;;19.90;nan
12146;BME280;6136;47.032;15.398;2022-07-30T07:51:10;97457.44;;;19.90;nan
12146;BME280;6136;47.032;15.398;2022-07-30T07:53:40;97455.31;;;20.01;nan
12146;BME280;6136;47.032;15.398;2022-07-30T07:56:08;97459.41;;;20.05;nan
12146;BME280;6136;47.032;15.398;2022-07-30T07:58:37;97457.22;;;20.09;nan
12146;BME280;6136;47.032;15.398;2022-07-30T08:01:07;97458.28;;;20.16;nan
12146;BME280;6136;47.032;15.398;2022-07-30T08:04:10;97462.31;;;20.12;nan
12146;BME280;6136;47.032;15.398;2022-07-30T08:07:17;97461.69;;;20.18;nan
12146;BME280;6136;47.032;15.398;2022-07-30T08:10:10;97469.81;;;20.26;nan
12146;BME280;6136;47.032;15.398;2022-07-30T08:13:12;97482.25;;;20.27;nan
12146;BME280;6136;47.032;15.398;2022-07-30T08:16:01;97466.13;;;20.27;nan
12146;BME280;6136;47.032;15.398;2022-07-30T08:18:48;97475.19;;;20.26;nan
12146;BME280;6136;47.032;15.398;2022-07-30T08:21:45;97472.81;;;20.23;nan
12146;BME280;6136;47.032;15.398;2022-07-30T08:24:16;97481.91;;;20.22;nan
12146;BME280;6136;47.032;15.398;2022-07-30T08:26:45;97487.34;;;20.30;nan
12146;BME280;6136;47.032;15.398;2022-07-30T08:29:14;97488.09;;;20.40;nan
12146;BME280;6136;47.032;15.398;2022-07-30T08:31:43;97479.66;;;20.35;nan
12146;BME280;6136;47.032;15.398;2022-07-30T08:34:12;97483.41;;;20.42;nan
12146;BME280;6136;47.032;15.398;2022-07-30T08:36:40;97484.09;;;20.44;nan
12146;BME280;6136;47.032;15.398;2022-07-30T08:39:09;97479.81;;;20.60;nan
12146;BME280;6136;47.032;15.398;2022-07-30T08:41:37;97480.06;;;20.74;nan
12146;BME280;6136;47.032;15.398;2022-07-30T08:44:09;97479.47;;;20.88;nan
12146;BME280;6136;47.032;15.398;2022-07-30T08:46:40;97487.38;;;20.98;nan
12146;BME280;6136;47.032;15.398;2022-07-30T08:49:26;97481.38;;;21.12;nan
12146;BME280;6136;47.032;15.398;2022-07-30T08:51:56;97480.09;;;21.16;nan
12146;BME280;6136;47.032;15.398;2022-07-30T08:54:38;97490.22;;;21.22;nan
12146;BME280;6136;47.032;15.398;2022-07-30T08:57:06;97481.78;;;21.17;nan
12146;BME280;6136;47.032;15.398;2022-07-30T08:59:37;97480.16;;;21.33;nan
12146;BME280;6136;47.032;15.398;2022-07-30T09:02:27;97479.47;;;21.39;nan
12146;BME280;6136;47.032;15.398;2022-07-30T09:05:02;97481.84;;;21.34;nan
12146;BME280;6136;47.032;15.398;2022-07-30T09:07:31;97475.13;;;21.46;nan
12146;BME280;6136;47.032;15.398;2022-07-30T09:10:01;97472.44;;;21.54;nan
12146;BME280;6136;47.032;15.398;2022-07-30T09:12:37;97478.00;;;21.60;nan
12146;BME280;6136;47.032;15.398;2022-07-30T09:15:09;97479.34;;;21.64;nan
12146;BME280;6136;47.032;15.398;2022-07-30T09:17:45;97475.50;;;21.75;nan
12146;BME280;6136;47.032;15.398;2022-07-30T09:20:14;97475.84;;;21.88;nan
12146;BME280;6136;47.032;15.398;2022-07-30T09:22:44;97481.25;;;21.96;nan
12146;BME280;6136;47.032;15.398;2022-07-30T09:25:36;97471.16;;;22.15;nan
12146;BME280;6136;47.032;15.398;2022-07-30T09:28:28;97478.56;;;22.29;nan
12146;BME280;6136;47.032;15.398;2022-07-30T09:31:14;97476.88;;;22.28;nan
12146;BME280;6136;47.032;15.398;2022-07-30T09:34:01;97466.06;;;22.36;nan
12146;BME280;6136;47.032;15.398;2022-07-30T09:37:04;97476.50;;;22.39;nan
12146;BME280;6136;47.032;15.398;2022-07-30T09:40:14;97478.19;;;22.48;nan
12146;BME280;6136;47.032;15.398;2022-07-30T09:43:21;97465.97;;;22.76;nan
12146;BME280;6136;47.032;15.398;2022-07-30T09:45:59;97470.00;;;22.89;nan
12146;BME280;6136;47.032;15.398;2022-07-30T09:48:30;97463.53;;;22.98;nan
12146;BME280;6136;47.032;15.398;2022-07-30T09:50:59;97461.31;;;23.01;nan
12146;BME280;6136;47.032;15.398;2022-07-30T09:53:28;97468.25;;;23.04;nan
12146;BME280;6136;47.032;15.398;2022-07-30T09:55:57;97462.41;;;23.23;nan
12146;BME280;6136;47.032;15.398;2022-07-30T09:58:36;97465.53;;;23.35;nan
12146;BME280;6136;47.032;15.398;2022-07-30T10:01:06;97457.53;;;23.49;nan
12146;BME280;6136;47.032;15.398;2022-07-30T10:04:09;97460.59;;;23.46;nan
12146;BME280;6136;47.032;15.398;2022-07-30T10:07:00;97467.28;;;23.58;nan
12146;BME280;6136;47.032;15.398;2022-07-30T10:09:39;97470.44;;;23.39;nan
12146;BME280;6136;47.032;15.398;2022-07-30T10:12:12;97474.50;;;23.35;nan
12146;BME280;6136;47.032;15.398;2022-07-30T10:14:46;97472.72;;;23.19;nan
12146;BME280;6136;47.032;15.398;2022-07-30T10:17:18;97471.91;;;23.19;nan
12146;BME280;6136;47.032;15.398;2022-07-30T10:20:17;97466.63;;;23.26;nan
12146;BME280;6136;47.032;15.398;2022-07-30T10:23:06;97471.34;;;23.23;nan
12146;BME280;6136;47.032;15.398;2022-07-30T10:25:36;97464.47;;;23.13;nan
12146;BME280;6136;47.032;15.398;2022-07-30T10:28:34;97464.75;;;22.95;nan
12146;BME280;6136;47.032;15.398;2022-07-30T10:31:04;97462.34;;;23.00;nan
12146;BME280;6136;47.032;15.398;2022-07-30T10:33:34;97465.28;;;22.82;nan
12146;BME280;6136;47.032;15.398;2022-07-30T10:36:09;97459.53;;;22.86;nan
12146;BME280;6136;47.032;15.398;2022-07-30T10:38:39;97463.88;;;22.95;nan
12146;BME280;6136;47.032;15.398;2022-07-30T10:41:17;97453.94;;;22.95;nan
12146;BME280;6136;47.032;15.398;2022-07-30T10:44:19;97456.78;;;22.94;nan
12146;BME280;6136;47.032;15.398;2022-07-30T10:46:59;97463.88;;;22.95;nan
12146;BME280;6136;47.032;15.398;2022-07-30T10:49:33;97461.66;;;22.98;nan
12146;BME280;6136;47.032;15.398;2022-07-30T10:52:08;97458.47;;;23.03;nan
12146;BME280;6136;47.032;15.398;2022-07-30T10:54:40;97458.22;;;22.81;nan
12146;BME280;6136;47.032;15.398;2022-07-30T10:57:11;97457.13;;;22.91;nan
12146;BME280;6136;47.032;15.398;2022-07-30T11:00:11;97464.88;;;23.02;nan
12146;BME280;6136;47.032;15.398;2022-07-30T11:03:14;97460.50;;;22.93;nan
12146;BME280;6136;47.032;15.398;2022-07-30T11:05:45;97460.88;;;22.90;nan
12146;BME280;6136;47.032;15.398;2022-07-30T11:08:33;97466.97;;;22.83;nan
12146;BME280;6136;47.032;15.398;2022-07-30T11:11:04;97461.75;;;22.82;nan
12146;BME280;6136;47.032;15.398;2022-07-30T11:13:52;97456.47;;;22.97;nan
12146;BME280;6136;47.032;15.398;2022-07-30T11:16:21;97463.91;;;22.87;nan
12146;BME280;6136;47.032;15.398;2022-07-30T11:19:04;97462.41;;;22.84;nan
12146;BME280;6136;47.032;15.398;2022-07-30T11:22:26;97465.63;;;22.88;nan
12146;BME280;6136;47.032;15.398;2022-07-30T11:24:57;97466.28;;;22.90;nan
12146;BME280;6136;47.032;15.398;2022-07-30T11:27:37;97466.34;;;22.73;nan
12146;BME280;6136;47.032;15.398;2022-07-30T11:30:32;97461.56;;;22.83;nan
12146;BME280;6136;47.032;15.398;2022-07-30T11:33:22;97465.06;;;22.92;nan
12146;BME280;6136;47.032;15.398;2022-07-30T11:36:10;97458.50;;;22.95;nan
12146;BME280;6136;47.032;15.398;2022-07-30T11:38:55;97466.28;;;22.90;nan
12146;BME280;6136;47.032;15.398;2022-07-30T11:41:32;97454.38;;;23.07;nan
12146;BME280;6136;47.032;15.398;2022-07-30T11:44:24;97453.19;;;23.09;nan
12146;BME280;6136;47.032;15.398;2022-07-30T11:46:53;97451.25;;;23.26;nan
12146;BME280;6136;47.032;15.398;2022-07-30T11:49:21;97454.88;;;23.41;nan
12146;BME280;6136;47.032;15.398;2022-07-30T11:51:49;97453.19;;;23.40;nan
12146;BME280;6136;47.032;15.398;2022-07-30T11:54:17;97450.91;;;23.21;nan
12146;BME280;6136;47.032;15.398;2022-07-30T11:56:52;97454.50;;;23.13;nan
12146;BME280;6136;47.032;15.398;2022-07-30T11:59:21;97453.31;;;23.16;nan
12146;BME280;6136;47.032;15.398;2022-07-30T12:01:50;97447.19;;;23.22;nan
12146;BME280;6136;47.032;15.398;2022-07-30T12:04:18;97440.81;;;23.15;nan
12146;BME280;6136;47.032;15.398;2022-07-30T12:06:47;97444.19;;;23.17;nan
12146;BME280;6136;47.032;15.398;2022-07-30T12:09:22;97441.19;;;23.12;nan
12146;BME280;6136;47.032;15.398;2022-07-30T12:11:56;97437.09;;;23.47;nan
12146;BME280;6136;47.032;15.398;2022-07-30T12:14:24;97436.75;;;23.73;nan
12146;BME280;6136;47.032;15.398;2022-07-30T12:16:53;97439.53;;;24.02;nan
12146;BME280;6136;47.032;15.398;2022-07-30T12:19:21;97441.03;;;24.27;nan
12146;BME280;6136;47.032;15.398;2022-07-30T12:21:49;97434.81;;;24.42;nan
12146;BME280;6136;47.032;15.398;2022-07-30T12:24:23;97437.69;;;24.55;nan
12146;BME280;6136;47.032;15.398;2022-07-30T12:27:04;97435.94;;;24.76;nan
12146;BME280;6136;47.032;15.398;2022-07-30T12:29:33;97435.75;;;24.78;nan
12146;BME280;6136;47.032;15.398;2022-07-30T12:32:02;97423.97;;;24.86;nan
12146;BME280;6136;47.032;15.398;2022-07-30T12:34:31;97428.53;;;24.85;nan
12146;BME280;6136;47.032;15.398;2022-07-30T12:37:06;97431.66;;;24.67;nan
12146;BME280;6136;47.032;15.398;2022-07-30T12:39:35;97428.72;;;24.69;nan
12146;BME280;6136;47.032;15.398;2022-07-30T12:42:05;97433.88;;;24.79;nan
12146;BME280;6136;47.032;15.398;2022-07-30T12:44:36;97431.75;;;24.74;nan
12146;BME280;6136;47.032;15.398;2022-07-30T12:47:09;97425.94;;;24.77;nan
12146;BME280;6136;47.032;15.398;2022-07-30T12:49:45;97420.25;;;24.57;nan
12146;BME280;6136;47.032;15.398;2022-07-30T12:52:20;97422.94;;;24.72;nan
12146;BME280;6136;47.032;15.398;2022-07-30T12:55:04;97416.88;;;24.70;nan
12146;BME280;6136;47.032;15.398;2022-07-30T12:57:58;97413.50;;;24.68;nan
12146;BME280;6136;47.032;15.398;2022-07-30T13:00:45;97415.09;;;25.06;nan
12146;BME280;6136;47.032;15.398;2022-07-30T13:03:20;97419.00;;;25.19;nan
12146;BME280;6136;47.032;15.398;2022-07-30T13:05:50;97409.06;;;25.62;nan
12146;BME280;6136;47.032;15.398;2022-07-30T13:11:24;97415.00;;;25.36;nan
12146;BME280;6136;47.032;15.398;2022-07-30T13:13:54;97400.03;;;25.40;nan
12146;BME280;6136;47.032;15.398;2022-07-30T13:16:22;97400.53;;;25.50;nan
12146;BME280;6136;47.032;15.398;2022-07-30T13:18:50;97402.50;;;25.56;nan
12146;BME280;6136;47.032;15.398;2022-07-30T13:21:19;97389.59;;;25.79;nan
12146;BME280;6136;47.032;15.398;2022-07-30T13:23:47;97392.53;;;26.06;nan
12146;BME280;6136;47.032;15.398;2022-07-30T13:26:15;97399.69;;;26.35;nan
12146;BME280;6136;47.032;15.398;2022-07-30T13:28:44;97381.66;;;26.61;nan
12146;BME280;6136;47.032;15.398;2022-07-30T13:31:14;97383.91;;;26.51;nan
12146;BME280;6136;47.032;15.398;2022-07-30T13:33:42;97368.75;;;26.36;nan
12146;BME280;6136;47.032;15.398;2022-07-30T13:36:10;97371.38;;;26.01;nan
12146;BME280;6136;47.032;15.398;2022-07-30T13:38:38;97367.38;;;25.69;nan
12146;BME280;6136;47.032;15.398;2022-07-30T13:41:06;97369.06;;;25.70;nan
12146;BME280;6136;47.032;15.398;2022-07-30T13:43:35;97370.28;;;25.68;nan
12146;BME280;6136;47.032;15.398;2022-07-30T13:46:03;97358.22;;;25.70;nan
12146;BME280;6136;47.032;15.398;2022-07-30T13:48:33;97360.53;;;26.01;nan
12146;BME280;6136;47.032;15.398;2022-07-30T13:51:03;97368.00;;;25.93;nan
12146;BME280;6136;47.032;15.398;2022-07-30T13:53:32;97349.47;;;25.75;nan
12146;BME280;6136;47.032;15.398;2022-07-30T13:56:00;97357.91;;;25.86;nan
12146;BME280;6136;47.032;15.398;2022-07-30T13:58:29;97360.66;;;25.65;nan
12146;BME280;6136;47.032;15.398;2022-07-30T14:01:01;97352.31;;;25.95;nan
12146;BME280;6136;47.032;15.398;2022-07-30T14:03:34;97359.16;;;26.12;nan
12146;BME280;6136;47.032;15.398;2022-07-30T14:06:02;97357.06;;;26.35;nan